sensor_id;sensor_type;location;lat;lon;timestamp;P1;durP1;ratioP1;P2;durP2;ratioP2
65096;SDS011;51686;46.758;4.356;2022-07-15T00:01:37;5.72;;;2.00;;
65096;SDS011;51686;46.758;4.356;2022-07-15T00:04:28;5.10;;;1.88;;
65096;SDS011;51686;46.758;4.356;2022-07-15T00:07:18;3.03;;;1.50;;
65096;SDS011;51686;46.758;4.356;2022-07-15T00:10:07;5.55;;;1.85;;
65096;SDS011;51686;46.758;4.356;2022-07-15T00:13:01;4.30;;;1.70;;
65096;SDS011;51686;46.758;4.356;2022-07-15T00:15:48;3.87;;;1.60;;
65096;SDS011;51686;46.758;4.356;2022-07-15T00:18:35;4.25;;;1.67;;
65096;SDS011;51686;46.758;4.356;2022-07-15T00:21:22;3.75;;;1.50;;
65096;SDS011;51686;46.758;4.356;2022-07-15T00:24:09;4.20;;;1.60;;
65096;SDS011;51686;46.758;4.356;2022-07-15T00:26:56;3.95;;;1.63;;
65096;SDS011;51686;46.758;4.356;2022-07-15T00:29:43;4.75;;;1.70;;
65096;SDS011;51686;46.758;4.356;2022-07-15T00:32:35;5.90;;;1.70;;
65096;SDS011;51686;46.758;4.356;2022-07-15T00:35:21;3.65;;;1.50;;
65096;SDS011;51686;46.758;4.356;2022-07-15T00:38:08;4.32;;;1.63;;
65096;SDS011;51686;46.758;4.356;2022-07-15T00:41:01;2.78;;;1.42;;
65096;SDS011;51686;46.758;4.356;2022-07-15T00:43:48;4.05;;;1.58;;
65096;SDS011;51686;46.758;4.356;2022-07-15T00:46:36;3.45;;;1.55;;
65096;SDS011;51686;46.758;4.356;2022-07-15T00:49:22;3.70;;;1.53;;
65096;SDS011;51686;46.758;4.356;2022-07-15T00:52:23;4.40;;;1.67;;
65096;SDS011;51686;46.758;4.356;2022-07-15T00:55:13;4.60;;;1.60;;
65096;SDS011;51686;46.758;4.356;2022-07-15T00:58:03;4.22;;;1.73;;
65096;SDS011;51686;46.758;4.356;2022-07-15T01:00:51;4.80;;;1.67;;
65096;SDS011;51686;46.758;4.356;2022-07-15T01:03:38;2.50;;;1.40;;
65096;SDS011;51686;46.758;4.356;2022-07-15T01:06:26;4.07;;;1.65;;
65096;SDS011;51686;46.758;4.356;2022-07-15T01:09:14;3.13;;;1.50;;
65096;SDS011;51686;46.758;4.356;2022-07-15T01:12:01;4.20;;;1.80;;
65096;SDS011;51686;46.758;4.356;2022-07-15T01:14:48;3.42;;;1.75;;
65096;SDS011;51686;46.758;4.356;2022-07-15T01:17:37;4.65;;;1.70;;
65096;SDS011;51686;46.758;4.356;2022-07-15T01:20:24;4.10;;;1.60;;
65096;SDS011;51686;46.758;4.356;2022-07-15T01:23:11;4.88;;;1.90;;
65096;SDS011;51686;46.758;4.356;2022-07-15T01:25:59;4.63;;;1.80;;
65096;SDS011;51686;46.758;4.356;2022-07-15T01:28:46;4.60;;;1.80;;
65096;SDS011;51686;46.758;4.356;2022-07-15T01:31:33;5.15;;;1.70;;
65096;SDS011;51686;46.758;4.356;2022-07-15T01:34:20;3.83;;;1.70;;
65096;SDS011;51686;46.758;4.356;2022-07-15T01:37:10;4.43;;;1.70;;
65096;SDS011;51686;46.758;4.356;2022-07-15T01:39:56;4.10;;;1.70;;
65096;SDS011;51686;46.758;4.356;2022-07-15T01:42:43;4.68;;;1.70;;
65096;SDS011;51686;46.758;4.356;2022-07-15T01:45:30;3.60;;;1.52;;
65096;SDS011;51686;46.758;4.356;2022-07-15T01:48:18;3.60;;;1.60;;
65096;SDS011;51686;46.758;4.356;2022-07-15T01:51:26;3.90;;;1.65;;
65096;SDS011;51686;46.758;4.356;2022-07-15T01:54:16;7.25;;;1.90;;
65096;SDS011;51686;46.758;4.356;2022-07-15T01:57:04;4.10;;;1.70;;
65096;SDS011;51686;46.758;4.356;2022-07-15T01:59:53;4.50;;;1.90;;
65096;SDS011;51686;46.758;4.356;2022-07-15T02:02:42;6.07;;;1.80;;
65096;SDS011;51686;46.758;4.356;2022-07-15T02:05:30;4.78;;;1.63;;
65096;SDS011;51686;46.758;4.356;2022-07-15T02:08:17;5.20;;;1.80;;
65096;SDS011;51686;46.758;4.356;2022-07-15T02:11:04;4.63;;;1.70;;
65096;SDS011;51686;46.758;4.356;2022-07-15T02:13:51;4.85;;;1.70;;
65096;SDS011;51686;46.758;4.356;2022-07-15T02:16:40;4.05;;;1.75;;
65096;SDS011;51686;46.758;4.356;2022-07-15T02:19:27;5.78;;;1.60;;
65096;SDS011;51686;46.758;4.356;2022-07-15T02:22:14;4.05;;;1.50;;
65096;SDS011;51686;46.758;4.356;2022-07-15T02:25:03;4.18;;;1.63;;
65096;SDS011;51686;46.758;4.356;2022-07-15T02:27:51;3.35;;;1.73;;
65096;SDS011;51686;46.758;4.356;2022-07-15T02:30:40;4.20;;;1.70;;
65096;SDS011;51686;46.758;4.356;2022-07-15T02:36:21;4.30;;;1.77;;
65096;SDS011;51686;46.758;4.356;2022-07-15T02:39:08;4.45;;;1.70;;
65096;SDS011;51686;46.758;4.356;2022-07-15T02:41:55;3.20;;;1.45;;
65096;SDS011;51686;46.758;4.356;2022-07-15T02:44:42;3.15;;;1.35;;
65096;SDS011;51686;46.758;4.356;2022-07-15T02:47:28;3.25;;;1.42;;
65096;SDS011;51686;46.758;4.356;2022-07-15T02:50:17;4.13;;;1.60;;
65096;SDS011;51686;46.758;4.356;2022-07-15T02:53:04;5.07;;;1.55;;
65096;SDS011;51686;46.758;4.356;2022-07-15T02:55:51;4.85;;;1.90;;
65096;SDS011;51686;46.758;4.356;2022-07-15T02:58:38;5.28;;;1.90;;
65096;SDS011;51686;46.758;4.356;2022-07-15T03:01:25;3.58;;;1.58;;
65096;SDS011;51686;46.758;4.356;2022-07-15T03:04:12;4.63;;;1.55;;
65096;SDS011;51686;46.758;4.356;2022-07-15T03:06:59;3.78;;;1.65;;
65096;SDS011;51686;46.758;4.356;2022-07-15T03:09:46;4.18;;;1.60;;
65096;SDS011;51686;46.758;4.356;2022-07-15T03:12:33;4.57;;;1.70;;
65096;SDS011;51686;46.758;4.356;2022-07-15T03:15:20;3.60;;;1.65;;
65096;SDS011;51686;46.758;4.356;2022-07-15T03:18:07;5.43;;;2.10;;
65096;SDS011;51686;46.758;4.356;2022-07-15T03:20:54;4.30;;;1.70;;
65096;SDS011;51686;46.758;4.356;2022-07-15T03:23:41;4.53;;;1.80;;
65096;SDS011;51686;46.758;4.356;2022-07-15T03:26:28;3.22;;;1.60;;
65096;SDS011;51686;46.758;4.356;2022-07-15T03:29:15;4.90;;;1.75;;
65096;SDS011;51686;46.758;4.356;2022-07-15T03:32:02;4.72;;;1.80;;
65096;SDS011;51686;46.758;4.356;2022-07-15T03:34:49;4.78;;;1.80;;
65096;SDS011;51686;46.758;4.356;2022-07-15T03:37:36;3.85;;;1.60;;
65096;SDS011;51686;46.758;4.356;2022-07-15T03:40:23;4.15;;;1.80;;
65096;SDS011;51686;46.758;4.356;2022-07-15T03:43:12;4.25;;;1.70;;
65096;SDS011;51686;46.758;4.356;2022-07-15T03:46:00;4.32;;;1.80;;
65096;SDS011;51686;46.758;4.356;2022-07-15T03:48:53;5.70;;;1.75;;
65096;SDS011;51686;46.758;4.356;2022-07-15T03:51:41;5.68;;;1.67;;
65096;SDS011;51686;46.758;4.356;2022-07-15T03:54:28;3.70;;;1.70;;
65096;SDS011;51686;46.758;4.356;2022-07-15T03:57:15;5.28;;;1.90;;
65096;SDS011;51686;46.758;4.356;2022-07-15T04:00:02;4.65;;;1.90;;
65096;SDS011;51686;46.758;4.356;2022-07-15T04:02:52;5.13;;;1.90;;
65096;SDS011;51686;46.758;4.356;2022-07-15T04:05:39;4.78;;;1.88;;
65096;SDS011;51686;46.758;4.356;2022-07-15T04:08:26;4.55;;;1.70;;
65096;SDS011;51686;46.758;4.356;2022-07-15T04:11:13;4.90;;;1.90;;
65096;SDS011;51686;46.758;4.356;2022-07-15T04:14:01;5.82;;;1.90;;
65096;SDS011;51686;46.758;4.356;2022-07-15T04:16:48;5.60;;;1.88;;
65096;SDS011;51686;46.758;4.356;2022-07-15T04:19:36;4.40;;;1.88;;
65096;SDS011;51686;46.758;4.356;2022-07-15T04:22:22;3.67;;;1.52;;
65096;SDS011;51686;46.758;4.356;2022-07-15T04:25:10;4.13;;;1.85;;
65096;SDS011;51686;46.758;4.356;2022-07-15T04:27:58;5.25;;;1.92;;
65096;SDS011;51686;46.758;4.356;2022-07-15T04:30:45;4.50;;;1.73;;
65096;SDS011;51686;46.758;4.356;2022-07-15T04:33:32;4.32;;;1.88;;
65096;SDS011;51686;46.758;4.356;2022-07-15T04:36:19;5.35;;;1.95;;
65096;SDS011;51686;46.758;4.356;2022-07-15T04:39:06;4.93;;;1.80;;
65096;SDS011;51686;46.758;4.356;2022-07-15T04:41:53;5.38;;;2.05;;
65096;SDS011;51686;46.758;4.356;2022-07-15T04:44:40;5.82;;;2.10;;
65096;SDS011;51686;46.758;4.356;2022-07-15T04:47:27;4.95;;;2.15;;
65096;SDS011;51686;46.758;4.356;2022-07-15T04:50:13;5.95;;;2.28;;
65096;SDS011;51686;46.758;4.356;2022-07-15T04:53:21;5.57;;;2.20;;
65096;SDS011;51686;46.758;4.356;2022-07-15T04:56:08;5.63;;;2.25;;
65096;SDS011;51686;46.758;4.356;2022-07-15T04:58:55;6.07;;;2.03;;
65096;SDS011;51686;46.758;4.356;2022-07-15T05:01:42;6.10;;;2.40;;
65096;SDS011;51686;46.758;4.356;2022-07-15T05:04:29;6.28;;;2.35;;
65096;SDS011;51686;46.758;4.356;2022-07-15T05:07:16;7.25;;;2.20;;
65096;SDS011;51686;46.758;4.356;2022-07-15T05:10:03;6.78;;;2.00;;
65096;SDS011;51686;46.758;4.356;2022-07-15T05:12:51;7.28;;;2.40;;
65096;SDS011;51686;46.758;4.356;2022-07-15T05:15:41;6.03;;;2.17;;
65096;SDS011;51686;46.758;4.356;2022-07-15T05:18:28;7.28;;;2.22;;
65096;SDS011;51686;46.758;4.356;2022-07-15T05:21:15;6.38;;;2.00;;
65096;SDS011;51686;46.758;4.356;2022-07-15T05:24:10;6.07;;;2.42;;
65096;SDS011;51686;46.758;4.356;2022-07-15T05:27:14;5.55;;;2.15;;
65096;SDS011;51686;46.758;4.356;2022-07-15T05:30:01;5.70;;;2.22;;
65096;SDS011;51686;46.758;4.356;2022-07-15T05:32:48;5.85;;;2.13;;
65096;SDS011;51686;46.758;4.356;2022-07-15T05:35:35;6.00;;;2.00;;
65096;SDS011;51686;46.758;4.356;2022-07-15T05:38:22;6.35;;;2.00;;
65096;SDS011;51686;46.758;4.356;2022-07-15T05:41:11;5.35;;;2.10;;
65096;SDS011;51686;46.758;4.356;2022-07-15T05:43:58;4.30;;;1.90;;
65096;SDS011;51686;46.758;4.356;2022-07-15T05:46:45;6.13;;;2.17;;
65096;SDS011;51686;46.758;4.356;2022-07-15T05:49:32;5.53;;;1.80;;
65096;SDS011;51686;46.758;4.356;2022-07-15T05:52:26;4.50;;;2.00;;
65096;SDS011;51686;46.758;4.356;2022-07-15T05:55:13;4.88;;;1.98;;
65096;SDS011;51686;46.758;4.356;2022-07-15T05:57:59;5.20;;;2.08;;
65096;SDS011;51686;46.758;4.356;2022-07-15T06:00:46;4.82;;;1.90;;
65096;SDS011;51686;46.758;4.356;2022-07-15T06:03:33;8.80;;;2.20;;
65096;SDS011;51686;46.758;4.356;2022-07-15T06:06:20;5.82;;;2.00;;
65096;SDS011;51686;46.758;4.356;2022-07-15T06:09:07;5.47;;;2.20;;
65096;SDS011;51686;46.758;4.356;2022-07-15T06:11:54;6.38;;;2.00;;
65096;SDS011;51686;46.758;4.356;2022-07-15T06:17:30;6.00;;;1.87;;
65096;SDS011;51686;46.758;4.356;2022-07-15T06:28:41;2.95;;;1.58;;
65096;SDS011;51686;46.758;4.356;2022-07-15T06:32:01;6.00;;;1.80;;
65096;SDS011;51686;46.758;4.356;2022-07-15T06:44:11;4.25;;;1.70;;
65096;SDS011;51686;46.758;4.356;2022-07-15T06:47:38;4.85;;;1.55;;
65096;SDS011;51686;46.758;4.356;2022-07-15T06:51:17;3.90;;;1.40;;
65096;SDS011;51686;46.758;4.356;2022-07-15T06:54:44;3.30;;;1.42;;
65096;SDS011;51686;46.758;4.356;2022-07-15T07:02:34;6.90;;;1.63;;
65096;SDS011;51686;46.758;4.356;2022-07-15T07:14:45;2.95;;;1.42;;
65096;SDS011;51686;46.758;4.356;2022-07-15T07:18:32;5.13;;;1.55;;
65096;SDS011;51686;46.758;4.356;2022-07-15T07:41:56;2.83;;;1.33;;
65096;SDS011;51686;46.758;4.356;2022-07-15T07:53:33;2.10;;;1.10;;
65096;SDS011;51686;46.758;4.356;2022-07-15T07:56:20;4.22;;;1.48;;
65096;SDS011;51686;46.758;4.356;2022-07-15T07:59:07;2.80;;;1.17;;
65096;SDS011;51686;46.758;4.356;2022-07-15T08:01:53;3.08;;;1.20;;
65096;SDS011;51686;46.758;4.356;2022-07-15T08:04:40;3.83;;;1.20;;
65096;SDS011;51686;46.758;4.356;2022-07-15T08:07:27;4.05;;;1.30;;
65096;SDS011;51686;46.758;4.356;2022-07-15T08:10:18;3.05;;;1.30;;
65096;SDS011;51686;46.758;4.356;2022-07-15T08:13:10;3.22;;;1.20;;
65096;SDS011;51686;46.758;4.356;2022-07-15T08:15:59;2.85;;;1.10;;
65096;SDS011;51686;46.758;4.356;2022-07-15T08:18:54;1.98;;;1.20;;
65096;SDS011;51686;46.758;4.356;2022-07-15T08:21:42;2.25;;;1.30;;
65096;SDS011;51686;46.758;4.356;2022-07-15T08:24:29;3.75;;;1.23;;
65096;SDS011;51686;46.758;4.356;2022-07-15T08:27:16;3.15;;;1.10;;
65096;SDS011;51686;46.758;4.356;2022-07-15T08:30:04;4.28;;;1.20;;
65096;SDS011;51686;46.758;4.356;2022-07-15T08:32:54;2.20;;;1.10;;
65096;SDS011;51686;46.758;4.356;2022-07-15T08:35:41;3.80;;;1.20;;
65096;SDS011;51686;46.758;4.356;2022-07-15T08:38:28;3.10;;;1.20;;
65096;SDS011;51686;46.758;4.356;2022-07-15T08:41:16;2.30;;;1.20;;
65096;SDS011;51686;46.758;4.356;2022-07-15T08:44:04;4.55;;;1.10;;
65096;SDS011;51686;46.758;4.356;2022-07-15T08:46:51;1.67;;;0.90;;
65096;SDS011;51686;46.758;4.356;2022-07-15T08:49:41;2.28;;;1.10;;
65096;SDS011;51686;46.758;4.356;2022-07-15T08:52:29;3.33;;;1.00;;
65096;SDS011;51686;46.758;4.356;2022-07-15T08:55:19;2.10;;;1.05;;
65096;SDS011;51686;46.758;4.356;2022-07-15T08:58:06;3.63;;;1.15;;
65096;SDS011;51686;46.758;4.356;2022-07-15T09:00:53;4.00;;;1.20;;
65096;SDS011;51686;46.758;4.356;2022-07-15T09:03:41;3.88;;;1.17;;
65096;SDS011;51686;46.758;4.356;2022-07-15T09:09:22;3.25;;;1.20;;
65096;SDS011;51686;46.758;4.356;2022-07-15T09:12:14;1.67;;;0.90;;
65096;SDS011;51686;46.758;4.356;2022-07-15T09:15:02;2.78;;;1.17;;
65096;SDS011;51686;46.758;4.356;2022-07-15T09:17:49;2.95;;;1.20;;
65096;SDS011;51686;46.758;4.356;2022-07-15T09:20:57;3.97;;;1.25;;
65096;SDS011;51686;46.758;4.356;2022-07-15T09:23:44;2.75;;;1.20;;
65096;SDS011;51686;46.758;4.356;2022-07-15T09:29:21;4.18;;;1.20;;
65096;SDS011;51686;46.758;4.356;2022-07-15T09:37:33;2.38;;;1.05;;
65096;SDS011;51686;46.758;4.356;2022-07-15T09:45:27;2.42;;;1.20;;
65096;SDS011;51686;46.758;4.356;2022-07-15T09:48:51;2.30;;;1.05;;
65096;SDS011;51686;46.758;4.356;2022-07-15T09:52:46;3.67;;;1.30;;
65096;SDS011;51686;46.758;4.356;2022-07-15T10:04:42;2.65;;;1.20;;
65096;SDS011;51686;46.758;4.356;2022-07-15T10:35:25;2.88;;;1.13;;
65096;SDS011;51686;46.758;4.356;2022-07-15T10:47:22;3.60;;;1.30;;
65096;SDS011;51686;46.758;4.356;2022-07-15T10:50:53;3.88;;;1.30;;
65096;SDS011;51686;46.758;4.356;2022-07-15T11:00:29;3.33;;;1.48;;
65096;SDS011;51686;46.758;4.356;2022-07-15T11:07:50;3.42;;;1.08;;
65096;SDS011;51686;46.758;4.356;2022-07-15T11:11:04;3.83;;;1.30;;
65096;SDS011;51686;46.758;4.356;2022-07-15T11:18:17;3.13;;;1.30;;
65096;SDS011;51686;46.758;4.356;2022-07-15T11:21:31;4.10;;;1.52;;
65096;SDS011;51686;46.758;4.356;2022-07-15T11:24:21;4.00;;;1.40;;
65096;SDS011;51686;46.758;4.356;2022-07-15T11:31:08;4.03;;;1.30;;
65096;SDS011;51686;46.758;4.356;2022-07-15T11:33:55;3.58;;;1.40;;
65096;SDS011;51686;46.758;4.356;2022-07-15T11:36:42;4.28;;;1.20;;
65096;SDS011;51686;46.758;4.356;2022-07-15T11:39:32;3.97;;;1.33;;
65096;SDS011;51686;46.758;4.356;2022-07-15T11:42:22;3.15;;;1.33;;
65096;SDS011;51686;46.758;4.356;2022-07-15T11:45:33;3.15;;;1.30;;
65096;SDS011;51686;46.758;4.356;2022-07-15T11:48:23;3.42;;;1.40;;
65096;SDS011;51686;46.758;4.356;2022-07-15T11:51:11;3.20;;;1.40;;
65096;SDS011;51686;46.758;4.356;2022-07-15T11:53:58;3.38;;;1.50;;
65096;SDS011;51686;46.758;4.356;2022-07-15T11:56:55;3.38;;;1.40;;
65096;SDS011;51686;46.758;4.356;2022-07-15T11:59:53;3.15;;;1.20;;
65096;SDS011;51686;46.758;4.356;2022-07-15T12:02:40;2.58;;;1.15;;
65096;SDS011;51686;46.758;4.356;2022-07-15T12:05:28;4.47;;;1.50;;
65096;SDS011;51686;46.758;4.356;2022-07-15T12:08:15;8.13;;;1.63;;
65096;SDS011;51686;46.758;4.356;2022-07-15T12:11:02;4.03;;;1.60;;
65096;SDS011;51686;46.758;4.356;2022-07-15T12:13:51;5.07;;;1.67;;
65096;SDS011;51686;46.758;4.356;2022-07-15T12:16:49;4.47;;;1.50;;
65096;SDS011;51686;46.758;4.356;2022-07-15T12:19:37;5.10;;;1.40;;
65096;SDS011;51686;46.758;4.356;2022-07-15T12:22:24;3.13;;;1.42;;
65096;SDS011;51686;46.758;4.356;2022-07-15T12:25:19;5.03;;;1.55;;
65096;SDS011;51686;46.758;4.356;2022-07-15T12:28:06;5.07;;;1.52;;
65096;SDS011;51686;46.758;4.356;2022-07-15T12:30:53;3.50;;;1.42;;
65096;SDS011;51686;46.758;4.356;2022-07-15T12:33:40;4.32;;;1.70;;
65096;SDS011;51686;46.758;4.356;2022-07-15T12:36:33;3.88;;;1.50;;
65096;SDS011;51686;46.758;4.356;2022-07-15T12:39:20;3.83;;;1.33;;
65096;SDS011;51686;46.758;4.356;2022-07-15T12:42:08;3.78;;;1.30;;
65096;SDS011;51686;46.758;4.356;2022-07-15T12:53:42;3.38;;;1.27;;
65096;SDS011;51686;46.758;4.356;2022-07-15T12:56:29;3.38;;;1.38;;
65096;SDS011;51686;46.758;4.356;2022-07-15T12:59:16;3.30;;;1.30;;
65096;SDS011;51686;46.758;4.356;2022-07-15T13:02:03;3.78;;;1.50;;
65096;SDS011;51686;46.758;4.356;2022-07-15T13:04:50;4.20;;;1.40;;
65096;SDS011;51686;46.758;4.356;2022-07-15T13:07:38;3.97;;;1.45;;
65096;SDS011;51686;46.758;4.356;2022-07-15T13:10:25;4.25;;;1.48;;
65096;SDS011;51686;46.758;4.356;2022-07-15T13:13:14;4.45;;;1.50;;
65096;SDS011;51686;46.758;4.356;2022-07-15T13:16:03;3.28;;;1.30;;
65096;SDS011;51686;46.758;4.356;2022-07-15T13:18:50;3.47;;;1.38;;
65096;SDS011;51686;46.758;4.356;2022-07-15T13:21:37;3.33;;;1.25;;
65096;SDS011;51686;46.758;4.356;2022-07-15T13:24:24;2.60;;;1.38;;
65096;SDS011;51686;46.758;4.356;2022-07-15T13:27:11;3.45;;;1.50;;
65096;SDS011;51686;46.758;4.356;2022-07-15T13:29:58;2.80;;;1.15;;
65096;SDS011;51686;46.758;4.356;2022-07-15T13:32:46;2.90;;;1.40;;
65096;SDS011;51686;46.758;4.356;2022-07-15T13:35:33;3.63;;;1.40;;
65096;SDS011;51686;46.758;4.356;2022-07-15T13:38:20;3.85;;;1.55;;
65096;SDS011;51686;46.758;4.356;2022-07-15T13:41:07;3.70;;;1.33;;
65096;SDS011;51686;46.758;4.356;2022-07-15T13:43:54;4.90;;;1.60;;
65096;SDS011;51686;46.758;4.356;2022-07-15T13:46:41;4.40;;;1.70;;
65096;SDS011;51686;46.758;4.356;2022-07-15T13:49:29;4.07;;;1.50;;
65096;SDS011;51686;46.758;4.356;2022-07-15T13:52:40;4.00;;;1.40;;
65096;SDS011;51686;46.758;4.356;2022-07-15T13:55:30;3.13;;;1.58;;
65096;SDS011;51686;46.758;4.356;2022-07-15T13:58:17;4.57;;;1.70;;
65096;SDS011;51686;46.758;4.356;2022-07-15T14:01:04;2.65;;;1.25;;
65096;SDS011;51686;46.758;4.356;2022-07-15T14:03:52;3.10;;;1.38;;
65096;SDS011;51686;46.758;4.356;2022-07-15T14:06:39;4.15;;;1.50;;
65096;SDS011;51686;46.758;4.356;2022-07-15T14:09:26;4.80;;;1.67;;
65096;SDS011;51686;46.758;4.356;2022-07-15T14:12:14;4.93;;;1.63;;
65096;SDS011;51686;46.758;4.356;2022-07-15T14:15:01;3.80;;;1.60;;
65096;SDS011;51686;46.758;4.356;2022-07-15T14:17:49;3.28;;;1.52;;
65096;SDS011;51686;46.758;4.356;2022-07-15T14:20:36;4.00;;;1.42;;
65096;SDS011;51686;46.758;4.356;2022-07-15T14:23:23;3.85;;;1.60;;
65096;SDS011;51686;46.758;4.356;2022-07-15T14:26:10;3.95;;;1.30;;
65096;SDS011;51686;46.758;4.356;2022-07-15T14:28:57;3.95;;;1.60;;
65096;SDS011;51686;46.758;4.356;2022-07-15T14:31:44;3.75;;;1.35;;
65096;SDS011;51686;46.758;4.356;2022-07-15T14:34:31;3.88;;;1.60;;
65096;SDS011;51686;46.758;4.356;2022-07-15T14:37:18;3.58;;;1.40;;
65096;SDS011;51686;46.758;4.356;2022-07-15T14:40:16;2.13;;;1.30;;
65096;SDS011;51686;46.758;4.356;2022-07-15T14:43:03;3.72;;;1.35;;
65096;SDS011;51686;46.758;4.356;2022-07-15T14:45:50;2.78;;;1.48;;
65096;SDS011;51686;46.758;4.356;2022-07-15T14:48:37;4.28;;;1.42;;
65096;SDS011;51686;46.758;4.356;2022-07-15T14:51:24;3.45;;;1.40;;
65096;SDS011;51686;46.758;4.356;2022-07-15T14:54:13;4.55;;;1.60;;
65096;SDS011;51686;46.758;4.356;2022-07-15T14:57:00;3.33;;;1.60;;
65096;SDS011;51686;46.758;4.356;2022-07-15T14:59:47;4.38;;;1.35;;
65096;SDS011;51686;46.758;4.356;2022-07-15T15:02:34;3.90;;;1.50;;
65096;SDS011;51686;46.758;4.356;2022-07-15T15:05:21;2.90;;;1.42;;
65096;SDS011;51686;46.758;4.356;2022-07-15T15:08:09;3.88;;;1.50;;
65096;SDS011;51686;46.758;4.356;2022-07-15T15:10:56;4.85;;;1.73;;
65096;SDS011;51686;46.758;4.356;2022-07-15T15:13:43;4.13;;;1.67;;
65096;SDS011;51686;46.758;4.356;2022-07-15T15:16:30;4.13;;;1.77;;
65096;SDS011;51686;46.758;4.356;2022-07-15T15:19:37;3.65;;;1.60;;
65096;SDS011;51686;46.758;4.356;2022-07-15T15:22:24;3.80;;;1.55;;
65096;SDS011;51686;46.758;4.356;2022-07-15T15:25:11;3.67;;;1.52;;
65096;SDS011;51686;46.758;4.356;2022-07-15T15:27:58;4.65;;;1.45;;
65096;SDS011;51686;46.758;4.356;2022-07-15T15:30:45;3.22;;;1.60;;
65096;SDS011;51686;46.758;4.356;2022-07-15T15:33:32;4.65;;;1.60;;
65096;SDS011;51686;46.758;4.356;2022-07-15T15:36:21;3.13;;;1.38;;
65096;SDS011;51686;46.758;4.356;2022-07-15T15:39:24;3.08;;;1.50;;
65096;SDS011;51686;46.758;4.356;2022-07-15T15:42:11;3.80;;;1.50;;
65096;SDS011;51686;46.758;4.356;2022-07-15T15:45:05;3.38;;;1.70;;
65096;SDS011;51686;46.758;4.356;2022-07-15T15:47:52;4.68;;;1.75;;
65096;SDS011;51686;46.758;4.356;2022-07-15T15:50:39;3.38;;;1.40;;
65096;SDS011;51686;46.758;4.356;2022-07-15T15:53:26;4.00;;;1.50;;
65096;SDS011;51686;46.758;4.356;2022-07-15T15:56:13;3.10;;;1.40;;
65096;SDS011;51686;46.758;4.356;2022-07-15T15:59:00;3.00;;;1.50;;
65096;SDS011;51686;46.758;4.356;2022-07-15T16:01:47;2.95;;;1.50;;
65096;SDS011;51686;46.758;4.356;2022-07-15T16:07:07;3.65;;;1.67;;
65096;SDS011;51686;46.758;4.356;2022-07-15T16:10:22;3.13;;;1.63;;
65096;SDS011;51686;46.758;4.356;2022-07-15T16:16:24;4.50;;;1.70;;
65096;SDS011;51686;46.758;4.356;2022-07-15T16:19:12;3.50;;;1.38;;
65096;SDS011;51686;46.758;4.356;2022-07-15T16:22:01;3.90;;;1.52;;
65096;SDS011;51686;46.758;4.356;2022-07-15T16:25:07;4.80;;;1.70;;
65096;SDS011;51686;46.758;4.356;2022-07-15T16:27:55;3.67;;;1.60;;
65096;SDS011;51686;46.758;4.356;2022-07-15T16:30:43;3.92;;;1.50;;
65096;SDS011;51686;46.758;4.356;2022-07-15T16:33:31;3.90;;;1.70;;
65096;SDS011;51686;46.758;4.356;2022-07-15T16:36:18;4.97;;;1.60;;
65096;SDS011;51686;46.758;4.356;2022-07-15T16:39:05;4.30;;;1.60;;
65096;SDS011;51686;46.758;4.356;2022-07-15T16:41:52;4.80;;;1.90;;
65096;SDS011;51686;46.758;4.356;2022-07-15T16:44:40;3.70;;;1.52;;
65096;SDS011;51686;46.758;4.356;2022-07-15T16:47:27;3.50;;;1.60;;
65096;SDS011;51686;46.758;4.356;2022-07-15T16:50:15;4.22;;;1.65;;
65096;SDS011;51686;46.758;4.356;2022-07-15T16:55:49;3.75;;;1.40;;
65096;SDS011;51686;46.758;4.356;2022-07-15T16:58:36;3.90;;;1.55;;
65096;SDS011;51686;46.758;4.356;2022-07-15T17:01:23;5.33;;;1.70;;
65096;SDS011;51686;46.758;4.356;2022-07-15T17:04:10;5.25;;;1.70;;
65096;SDS011;51686;46.758;4.356;2022-07-15T17:06:57;5.63;;;1.63;;
65096;SDS011;51686;46.758;4.356;2022-07-15T17:09:44;3.03;;;1.50;;
65096;SDS011;51686;46.758;4.356;2022-07-15T17:12:31;6.32;;;1.75;;
65096;SDS011;51686;46.758;4.356;2022-07-15T17:15:18;3.60;;;1.63;;
65096;SDS011;51686;46.758;4.356;2022-07-15T17:18:05;4.15;;;1.67;;
65096;SDS011;51686;46.758;4.356;2022-07-15T17:20:54;3.45;;;1.48;;
65096;SDS011;51686;46.758;4.356;2022-07-15T17:23:41;3.80;;;1.60;;
65096;SDS011;51686;46.758;4.356;2022-07-15T17:26:28;4.30;;;1.52;;
65096;SDS011;51686;46.758;4.356;2022-07-15T17:29:15;3.03;;;1.40;;
65096;SDS011;51686;46.758;4.356;2022-07-15T17:32:04;3.17;;;1.38;;
65096;SDS011;51686;46.758;4.356;2022-07-15T17:34:51;3.85;;;1.60;;
65096;SDS011;51686;46.758;4.356;2022-07-15T17:37:38;3.45;;;1.60;;
65096;SDS011;51686;46.758;4.356;2022-07-15T17:40:25;3.92;;;1.65;;
65096;SDS011;51686;46.758;4.356;2022-07-15T17:43:17;4.00;;;1.70;;
65096;SDS011;51686;46.758;4.356;2022-07-15T19:31:35;3.70;;;1.58;;
65096;SDS011;51686;46.758;4.356;2022-07-15T19:41:51;2.30;;;1.40;;
65096;SDS011;51686;46.758;4.356;2022-07-15T19:44:43;3.95;;;1.50;;
65096;SDS011;51686;46.758;4.356;2022-07-15T19:47:33;3.25;;;1.52;;
65096;SDS011;51686;46.758;4.356;2022-07-15T19:50:22;3.78;;;1.60;;
65096;SDS011;51686;46.758;4.356;2022-07-15T19:53:15;3.45;;;1.58;;
65096;SDS011;51686;46.758;4.356;2022-07-15T19:56:05;3.25;;;1.58;;
65096;SDS011;51686;46.758;4.356;2022-07-15T19:58:52;2.78;;;1.50;;
65096;SDS011;51686;46.758;4.356;2022-07-15T20:02:02;3.92;;;1.60;;
65096;SDS011;51686;46.758;4.356;2022-07-15T20:04:49;3.33;;;1.40;;
65096;SDS011;51686;46.758;4.356;2022-07-15T20:07:36;2.95;;;1.40;;
65096;SDS011;51686;46.758;4.356;2022-07-15T20:10:23;2.40;;;1.30;;
65096;SDS011;51686;46.758;4.356;2022-07-15T20:13:12;3.25;;;1.40;;
65096;SDS011;51686;46.758;4.356;2022-07-15T20:15:59;3.90;;;1.60;;
65096;SDS011;51686;46.758;4.356;2022-07-15T20:18:46;4.03;;;1.70;;
65096;SDS011;51686;46.758;4.356;2022-07-15T20:21:34;4.32;;;1.52;;
65096;SDS011;51686;46.758;4.356;2022-07-15T20:24:26;3.47;;;1.50;;
65096;SDS011;51686;46.758;4.356;2022-07-15T20:27:16;4.00;;;1.40;;
65096;SDS011;51686;46.758;4.356;2022-07-15T20:32:52;4.03;;;1.58;;
65096;SDS011;51686;46.758;4.356;2022-07-15T20:35:39;2.25;;;1.30;;
65096;SDS011;51686;46.758;4.356;2022-07-15T20:38:26;4.25;;;1.80;;
65096;SDS011;51686;46.758;4.356;2022-07-15T20:41:13;4.40;;;1.58;;
65096;SDS011;51686;46.758;4.356;2022-07-15T20:44:00;5.10;;;1.80;;
65096;SDS011;51686;46.758;4.356;2022-07-15T20:46:47;4.63;;;1.77;;
65096;SDS011;51686;46.758;4.356;2022-07-15T20:49:46;4.10;;;1.63;;
65096;SDS011;51686;46.758;4.356;2022-07-15T20:52:33;4.65;;;1.83;;
65096;SDS011;51686;46.758;4.356;2022-07-15T20:55:20;3.67;;;1.60;;
65096;SDS011;51686;46.758;4.356;2022-07-15T20:58:11;4.07;;;1.58;;
65096;SDS011;51686;46.758;4.356;2022-07-15T21:00:58;3.25;;;1.55;;
65096;SDS011;51686;46.758;4.356;2022-07-15T21:03:45;3.55;;;1.55;;
65096;SDS011;51686;46.758;4.356;2022-07-15T21:06:32;3.55;;;1.70;;
65096;SDS011;51686;46.758;4.356;2022-07-15T21:09:19;3.15;;;1.48;;
65096;SDS011;51686;46.758;4.356;2022-07-15T21:12:06;3.88;;;1.83;;
65096;SDS011;51686;46.758;4.356;2022-07-15T21:14:53;3.75;;;1.63;;
65096;SDS011;51686;46.758;4.356;2022-07-15T21:17:40;4.03;;;1.75;;
65096;SDS011;51686;46.758;4.356;2022-07-15T21:20:27;3.60;;;1.65;;
65096;SDS011;51686;46.758;4.356;2022-07-15T21:23:15;3.97;;;1.70;;
65096;SDS011;51686;46.758;4.356;2022-07-15T21:26:02;3.28;;;1.50;;
65096;SDS011;51686;46.758;4.356;2022-07-15T21:29:07;4.13;;;1.70;;
65096;SDS011;51686;46.758;4.356;2022-07-15T21:31:54;3.42;;;1.60;;
65096;SDS011;51686;46.758;4.356;2022-07-15T21:34:43;4.40;;;1.90;;
65096;SDS011;51686;46.758;4.356;2022-07-15T21:37:30;3.65;;;1.67;;
65096;SDS011;51686;46.758;4.356;2022-07-15T21:40:17;3.65;;;1.80;;
65096;SDS011;51686;46.758;4.356;2022-07-15T21:43:04;3.67;;;1.67;;
65096;SDS011;51686;46.758;4.356;2022-07-15T21:45:51;4.38;;;1.88;;